Time;durP1;ratioP1;P1;durP2;ratioP2;P2;SDS_P1;SDS_P2;PMS_P1;PMS_P2;Temp;Humidity;BMP_temperature;BMP_pressure;BME280_temperature;BME280_humidity;BME280_pressure;Samples;Min_cycle;Max_cycle;Signal;HPM_P1;HPM_P2
2023/09/28 00:00:51;;;;;;;;;;;;;;;;;;7364409;19;1305;-62
2023/09/28 00:03:17;;;;;;;;;;;;;;;;;;7367464;19;878;-62
2023/09/28 00:05:45;;;;;;;;;;;;;;;;;;7366577;19;812;-62
2023/09/28 00:08:14;;;;;;;;;;;;;;;;;;7367083;19;812;-62
2023/09/28 00:10:39;;;;;;;;;;;;;;;;;;7364566;19;1730;-62
2023/09/28 00:13:07;;;;;;;;;;;;;;;;;;7368354;19;922;-61
2023/09/28 00:15:33;;;;;;;;;;;;;;;;;;7366699;19;834;-66
2023/09/28 00:18:02;;;;;;;;;;;;;;;;;;7364344;19;1858;-63
2023/09/28 00:20:28;;;;;;;;;;;;;;;;;;7364741;19;1324;-62
2023/09/28 00:22:56;;;;;;;;;;;;;;;;;;7366762;19;857;-62
2023/09/28 00:25:23;;;;;;;;;;;;;;;;;;7366092;19;863;-62
2023/09/28 00:27:51;;;;;;;;;;;;;;;;;;7366186;19;805;-61
2023/09/28 00:30:18;;;;;;;;;;;;;;;;;;7365184;19;1895;-62
2023/09/28 00:32:46;;;;;;;;;;;;;;;;;;7366197;19;811;-62
2023/09/28 00:35:12;;;;;;;;;;;;;;;;;;7363876;19;893;-63
2023/09/28 00:37:41;;;;;;;;;;;;;;;;;;7364514;19;1865;-63
2023/09/28 00:40:17;;;;;;;;;;;;;;;;;;7365176;19;1337;-64
2023/09/28 00:42:43;;;;;;;;;;;;;;;;;;7366296;19;697;-64
2023/09/28 00:45:11;;;;;;;;;;;;;;;;;;7363519;19;823;-62
2023/09/28 00:47:38;;;;;;;;;;;;;;;;;;7366848;19;845;-63
2023/09/28 00:50:09;;;;;;;;;;;;;;;;;;7363451;19;1292;-62
2023/09/28 00:52:34;;;;;;;;;;;;;;;;;;7365946;19;721;-63
2023/09/28 00:55:03;;;;;;;;;;;;;;;;;;7364869;19;798;-64
2023/09/28 00:57:31;;;;;;;;;;;;;;;;;;7363063;19;1842;-64
2023/09/28 00:59:59;;;;;;;;;;;;;;;;;;7362886;19;1306;-62
2023/09/28 01:02:26;;;;;;;;;;;;;;;;;;7365281;19;853;-62
2023/09/28 01:04:54;;;;;;;;;;;;;;;;;;7367878;19;1012;-64
2023/09/28 01:07:19;;;;;;;;;;;;;;;;;;7364528;19;821;-63
2023/09/28 01:09:48;;;;;;;;;;;;;;;;;;7362796;19;1359;-63
2023/09/28 01:12:13;;;;;;;;;;;;;;;;;;7363383;19;968;-63
2023/09/28 01:14:41;;;;;;;;;;;;;;;;;;7363056;19;795;-64
2023/09/28 01:17:09;;;;;;;;;;;;;;;;;;7362696;19;1857;-64
2023/09/28 01:19:38;;;;;;;;;;;;;;;;;;7364621;19;1864;-63
2023/09/28 01:22:04;;;;;;;;;;;;;;;;;;7366389;19;1373;-63
2023/09/28 01:24:33;;;;;;;;;;;;;;;;;;7363385;19;835;-64
2023/09/28 01:26:59;;;;;;;;;;;;;;;;;;7363333;19;850;-63
2023/09/28 01:29:27;;;;;;;;;;;;;;;;;;7364781;19;1397;-64
2023/09/28 01:31:52;;;;;;;;;;;;;;;;;;7363249;19;870;-64
2023/09/28 01:34:20;;;;;;;;;;;;;;;;;;7363515;19;784;-64
2023/09/28 01:36:46;;;;;;;;;;;;;;;;;;7361280;19;1861;-64
2023/09/28 01:39:14;;;;;;;;;;;;;;;;;;7366699;19;1318;-64
2023/09/28 01:41:41;;;;;;;;;;;;;;;;;;7364688;19;861;-64
2023/09/28 01:44:09;;;;;;;;;;;;;;;;;;7364271;19;840;-63
2023/09/28 01:46:34;;;;;;;;;;;;;;;;;;7364171;19;755;-63
2023/09/28 01:49:02;;;;;;;;;;;;;;;;;;7364018;19;790;-63
2023/09/28 01:51:28;;;;;;;;;;;;;;;;;;7359695;19;1359;-64
2023/09/28 01:53:56;;;;;;;;;;;;;;;;;;7362491;19;820;-63
2023/09/28 01:56:22;;;;;;;;;;;;;;;;;;7365098;19;1874;-62
2023/09/28 01:58:50;;;;;;;;;;;;;;;;;;7362292;19;809;-63
2023/09/28 02:01:16;;;;;;;;;;;;;;;;;;7361412;19;1297;-62
2023/09/28 02:03:45;;;;;;;;;;;;;;;;;;7363645;19;851;-62
2023/09/28 02:06:10;;;;;;;;;;;;;;;;;;7362828;19;873;-63
2023/09/28 02:08:38;;;;;;;;;;;;;;;;;;7365204;19;817;-62
2023/09/28 02:11:04;;;;;;;;;;;;;;;;;;7366659;19;1286;-62
2023/09/28 02:13:33;;;;;;;;;;;;;;;;;;7374758;19;826;-65
2023/09/28 02:15:59;;;;;;;;;;;;;;;;;;7369561;19;831;-63
2023/09/28 02:18:27;;;;;;;;;;;;;;;;;;7366525;19;1869;-63
2023/09/28 02:20:52;;;;;;;;;;;;;;;;;;7366960;19;1278;-65
2023/09/28 02:23:22;;;;;;;;;;;;;;;;;;7368784;19;777;-63
2023/09/28 02:25:47;;;;;;;;;;;;;;;;;;7368889;19;846;-63
2023/09/28 02:28:16;;;;;;;;;;;;;;;;;;7369171;19;818;-62
2023/09/28 02:30:41;;;;;;;;;;;;;;;;;;7371093;19;1265;-62
2023/09/28 02:33:10;;;;;;;;;;;;;;;;;;7369035;19;781;-63
2023/09/28 02:35:38;;;;;;;;;;;;;;;;;;7367305;19;744;-65
2023/09/28 02:38:04;;;;;;;;;;;;;;;;;;7366706;19;1842;-62
2023/09/28 02:40:32;;;;;;;;;;;;;;;;;;7366296;19;1346;-62
2023/09/28 02:42:58;;;;;;;;;;;;;;;;;;7367828;19;885;-63
2023/09/28 02:45:27;;;;;;;;;;;;;;;;;;7366541;19;741;-63
2023/09/28 02:47:54;;;;;;;;;;;;;;;;;;7369752;19;826;-63
2023/09/28 02:50:22;;;;;;;;;;;;;;;;;;7366235;19;1353;-65
2023/09/28 02:52:48;;;;;;;;;;;;;;;;;;7367701;19;859;-62
2023/09/28 02:55:17;;;;;;;;;;;;;;;;;;7367257;19;912;-63
2023/09/28 02:57:43;;;;;;;;;;;;;;;;;;7368082;19;1846;-60
2023/09/28 03:00:18;;;;;;;;;;;;;;;;;;7367386;19;1355;-62
2023/09/28 03:02:44;;;;;;;;;;;;;;;;;;7368129;19;842;-63
2023/09/28 03:05:12;;;;;;;;;;;;;;;;;;7367802;19;778;-62
2023/09/28 03:07:39;;;;;;;;;;;;;;;;;;7367374;19;887;-63
2023/09/28 03:10:10;;;;;;;;;;;;;;;;;;7366604;19;1287;-65
2023/09/28 03:12:35;;;;;;;;;;;;;;;;;;7368274;19;830;-63
2023/09/28 03:15:07;;;;;;;;;;;;;;;;;;7368441;19;711;-63
2023/09/28 03:17:34;;;;;;;;;;;;;;;;;;7365971;19;1849;-64
2023/09/28 03:20:03;;;;;;;;;;;;;;;;;;7367368;19;1341;-65
2023/09/28 03:22:28;;;;;;;;;;;;;;;;;;7367959;19;762;-64
2023/09/28 03:24:56;;;;;;;;;;;;;;;;;;7368194;19;840;-64
2023/09/28 03:27:25;;;;;;;;;;;;;;;;;;7368531;19;785;-64
2023/09/28 03:29:50;;;;;;;;;;;;;;;;;;7369098;19;1611;-64
2023/09/28 03:32:18;;;;;;;;;;;;;;;;;;7369236;19;833;-64
2023/09/28 03:34:44;;;;;;;;;;;;;;;;;;7369384;19;845;-64
2023/09/28 03:37:12;;;;;;;;;;;;;;;;;;7369476;19;1854;-61
2023/09/28 03:39:40;;;;;;;;;;;;;;;;;;7367512;19;1300;-63
2023/09/28 03:42:08;;;;;;;;;;;;;;;;;;7368167;19;790;-64
2023/09/28 03:44:36;;;;;;;;;;;;;;;;;;7367657;19;866;-64
2023/09/28 03:47:04;;;;;;;;;;;;;;;;;;7367736;19;978;-63
2023/09/28 03:49:33;;;;;;;;;;;;;;;;;;7367166;19;1852;-63
2023/09/28 03:52:02;;;;;;;;;;;;;;;;;;7368592;19;708;-63
2023/09/28 03:54:30;;;;;;;;;;;;;;;;;;7369474;19;855;-63
2023/09/28 03:56:58;;;;;;;;;;;;;;;;;;7366516;19;1853;-63
2023/09/28 03:59:27;;;;;;;;;;;;;;;;;;7367341;19;1280;-64
2023/09/28 04:01:55;;;;;;;;;;;;;;;;;;7367223;19;801;-63
2023/09/28 04:04:23;;;;;;;;;;;;;;;;;;7366582;19;782;-63
2023/09/28 04:06:51;;;;;;;;;;;;;;;;;;7366224;19;842;-63
2023/09/28 04:09:19;;;;;;;;;;;;;;;;;;7367505;19;1278;-63
2023/09/28 04:11:47;;;;;;;;;;;;;;;;;;7369659;19;820;-63
2023/09/28 04:14:15;;;;;;;;;;;;;;;;;;7367485;19;845;-64
2023/09/28 04:16:44;;;;;;;;;;;;;;;;;;7365877;19;1841;-64
2023/09/28 04:19:12;;;;;;;;;;;;;;;;;;7367137;19;1301;-64
2023/09/28 04:21:40;;;;;;;;;;;;;;;;;;7366406;19;782;-63
2023/09/28 04:24:08;;;;;;;;;;;;;;;;;;7366400;19;835;-64
2023/09/28 04:26:37;;;;;;;;;;;;;;;;;;7365817;19;861;-63
2023/09/28 04:29:05;;;;;;;;;;;;;;;;;;7369449;19;864;-64
2023/09/28 04:31:33;;;;;;;;;;;;;;;;;;7361794;19;1251;-64
2023/09/28 04:34:02;;;;;;;;;;;;;;;;;;7366545;19;862;-63
2023/09/28 04:36:30;;;;;;;;;;;;;;;;;;7366009;19;792;-62
2023/09/28 04:38:58;;;;;;;;;;;;;;;;;;7362409;19;1838;-63
2023/09/28 04:41:26;;;;;;;;;;;;;;;;;;7363373;19;1209;-63
2023/09/28 04:43:54;;;;;;;;;;;;;;;;;;7365711;19;810;-64
2023/09/28 04:46:22;;;;;;;;;;;;;;;;;;7369600;19;1017;-63
2023/09/28 04:48:51;;;;;;;;;;;;;;;;;;7365783;19;878;-63
2023/09/28 04:51:19;;;;;;;;;;;;;;;;;;7363087;19;1298;-63
2023/09/28 04:53:47;;;;;;;;;;;;;;;;;;7365722;19;867;-63
2023/09/28 04:56:15;;;;;;;;;;;;;;;;;;7364643;19;857;-62
2023/09/28 04:58:43;;;;;;;;;;;;;;;;;;7363188;19;1854;-63
2023/09/28 05:01:11;;;;;;;;;;;;;;;;;;7362525;19;1920;-63
2023/09/28 05:03:40;;;;;;;;;;;;;;;;;;7368645;19;2101;-63
2023/09/28 05:06:09;;;;;;;;;;;;;;;;;;7367455;19;1677;-63
2023/09/28 05:08:38;;;;;;;;;;;;;;;;;;7365445;19;914;-64
2023/09/28 05:11:06;;;;;;;;;;;;;;;;;;7363346;19;1321;-64
2023/09/28 05:13:34;;;;;;;;;;;;;;;;;;7365541;19;837;-65
2023/09/28 05:16:02;;;;;;;;;;;;;;;;;;7364584;19;2124;-63
2023/09/28 05:18:31;;;;;;;;;;;;;;;;;;7365711;19;1857;-63
2023/09/28 05:20:59;;;;;;;;;;;;;;;;;;7364881;19;1762;-63
2023/09/28 05:23:27;;;;;;;;;;;;;;;;;;7369332;19;1630;-63
2023/09/28 05:25:56;;;;;;;;;;;;;;;;;;7364724;19;861;-64
2023/09/28 05:28:24;;;;;;;;;;;;;;;;;;7367291;19;1958;-64
2023/09/28 05:30:53;;;;;;;;;;;;;;;;;;7364433;19;1577;-63
2023/09/28 05:33:21;;;;;;;;;;;;;;;;;;7367432;19;1728;-63
2023/09/28 05:35:49;;;;;;;;;;;;;;;;;;7365504;19;1651;-65
2023/09/28 05:38:17;;;;;;;;;;;;;;;;;;7362972;19;1838;-64
2023/09/28 05:40:45;;;;;;;;;;;;;;;;;;7365600;19;1695;-64
2023/09/28 05:43:14;;;;;;;;;;;;;;;;;;7367974;19;798;-64
2023/09/28 05:45:42;;;;;;;;;;;;;;;;;;7369049;19;1537;-63
2023/09/28 05:48:10;;;;;;;;;;;;;;;;;;7374064;19;1865;-63
2023/09/28 05:50:38;;;;;;;;;;;;;;;;;;7373920;19;1723;-63
2023/09/28 05:53:07;;;;;;;;;;;;;;;;;;7370624;19;880;-63
2023/09/28 05:55:35;;;;;;;;;;;;;;;;;;7373401;19;1669;-63
2023/09/28 05:58:03;;;;;;;;;;;;;;;;;;7372621;19;1845;-64
2023/09/28 06:00:31;;;;;;;;;;;;;;;;;;7370659;19;1960;-64
2023/09/28 06:02:59;;;;;;;;;;;;;;;;;;7372117;19;1600;-64
2023/09/28 06:05:28;;;;;;;;;;;;;;;;;;7373597;19;2106;-62
2023/09/28 06:07:56;;;;;;;;;;;;;;;;;;7370069;19;826;-63
2023/09/28 06:10:24;;;;;;;;;;;;;;;;;;7372340;19;1717;-63
2023/09/28 06:12:52;;;;;;;;;;;;;;;;;;7371814;19;1556;-64
2023/09/28 06:15:21;;;;;;;;;;;;;;;;;;7373263;19;1511;-62
2023/09/28 06:17:49;;;;;;;;;;;;;;;;;;7368928;19;1850;-63
2023/09/28 06:20:17;;;;;;;;;;;;;;;;;;7370179;19;1792;-64
2023/09/28 06:22:45;;;;;;;;;;;;;;;;;;7371598;19;1811;-62
2023/09/28 06:25:13;;;;;;;;;;;;;;;;;;7371081;19;1695;-63
2023/09/28 06:27:41;;;;;;;;;;;;;;;;;;7371835;19;1679;-67
2023/09/28 06:30:09;;;;;;;;;;;;;;;;;;7372789;19;1454;-65
2023/09/28 06:32:37;;;;;;;;;;;;;;;;;;7369664;19;1670;-65
2023/09/28 06:35:06;;;;;;;;;;;;;;;;;;7370952;19;1721;-64
2023/09/28 06:37:34;;;;;;;;;;;;;;;;;;7372569;19;1868;-63
2023/09/28 06:40:02;;;;;;;;;;;;;;;;;;7370768;19;1775;-61
2023/09/28 06:42:30;;;;;;;;;;;;;;;;;;7373139;19;1695;-64
2023/09/28 06:44:59;;;;;;;;;;;;;;;;;;7371587;19;1916;-64
2023/09/28 06:47:27;;;;;;;;;;;;;;;;;;7367936;19;1807;-65
2023/09/28 06:49:56;;;;;;;;;;;;;;;;;;7372594;19;1725;-64
2023/09/28 06:52:24;;;;;;;;;;;;;;;;;;7371776;19;1640;-63
2023/09/28 06:54:52;;;;;;;;;;;;;;;;;;7367103;19;917;-63
2023/09/28 06:57:20;;;;;;;;;;;;;;;;;;7368822;19;817;-64
2023/09/28 06:59:49;;;;;;;;;;;;;;;;;;7368321;19;1389;-65
2023/09/28 07:02:17;;;;;;;;;;;;;;;;;;7368483;19;853;-63
2023/09/28 07:04:45;;;;;;;;;;;;;;;;;;7368145;19;833;-63
2023/09/28 07:07:16;;;;;;;;;;;;;;;;;;7369614;19;811;-62
2023/09/28 07:09:44;;;;;;;;;;;;;;;;;;7368320;19;1408;-62
2023/09/28 07:12:12;;;;;;;;;;;;;;;;;;7368713;19;839;-61
2023/09/28 07:14:41;;;;;;;;;;;;;;;;;;7366935;19;1806;-62
2023/09/28 07:17:09;;;;;;;;;;;;;;;;;;7369955;19;1927;-62
2023/09/28 07:19:37;;;;;;;;;;;;;;;;;;7367599;19;1842;-64
2023/09/28 07:22:05;;;;;;;;;;;;;;;;;;7370742;19;1793;-64
2023/09/28 07:24:34;;;;;;;;;;;;;;;;;;7371608;19;1739;-63
2023/09/28 07:27:02;;;;;;;;;;;;;;;;;;7372058;19;1703;-62
2023/09/28 07:29:30;;;;;;;;;;;;;;;;;;7367338;19;1337;-61
2023/09/28 07:31:58;;;;;;;;;;;;;;;;;;7367652;19;1818;-63
2023/09/28 07:34:26;;;;;;;;;;;;;;;;;;7371585;19;1657;-64
2023/09/28 07:36:55;;;;;;;;;;;;;;;;;;7368136;19;805;-62
2023/09/28 07:39:23;;;;;;;;;;;;;;;;;;7365428;19;2125;-63
2023/09/28 07:41:51;;;;;;;;;;;;;;;;;;7369321;19;1656;-63
2023/09/28 07:44:19;;;;;;;;;;;;;;;;;;7371612;19;1599;-62
2023/09/28 07:46:47;;;;;;;;;;;;;;;;;;7367834;19;1838;-63
2023/09/28 07:49:17;;;;;;;;;;;;;;;;;;7369318;19;1880;-63
2023/09/28 07:51:45;;;;;;;;;;;;;;;;;;7369491;19;1977;-62
2023/09/28 07:54:13;;;;;;;;;;;;;;;;;;7370735;19;1651;-63
2023/09/28 07:56:41;;;;;;;;;;;;;;;;;;7368431;19;2122;-61
2023/09/28 07:59:09;;;;;;;;;;;;;;;;;;7368203;19;1931;-61
2023/09/28 08:01:38;;;;;;;;;;;;;;;;;;7367363;19;1976;-63
2023/09/28 08:04:06;;;;;;;;;;;;;;;;;;7368184;19;2143;-65
2023/09/28 08:06:34;;;;;;;;;;;;;;;;;;7367379;19;1779;-62
2023/09/28 08:09:02;;;;;;;;;;;;;;;;;;7369003;19;1578;-64
2023/09/28 08:11:31;;;;;;;;;;;;;;;;;;7368143;19;1632;-65
2023/09/28 08:13:59;;;;;;;;;;;;;;;;;;7367253;19;815;-63
2023/09/28 08:16:27;;;;;;;;;;;;;;;;;;7366307;19;2112;-63
2023/09/28 08:18:55;;;;;;;;;;;;;;;;;;7367508;19;1838;-61
2023/09/28 08:21:24;;;;;;;;;;;;;;;;;;7368613;19;1456;-63
2023/09/28 08:23:52;;;;;;;;;;;;;;;;;;7366987;19;793;-63
2023/09/28 08:26:20;;;;;;;;;;;;;;;;;;7364496;19;1982;-62
2023/09/28 08:28:48;;;;;;;;;;;;;;;;;;7369035;19;1422;-64
2023/09/28 08:31:17;;;;;;;;;;;;;;;;;;7367264;19;1455;-63
2023/09/28 08:33:45;;;;;;;;;;;;;;;;;;7367810;19;1955;-61
2023/09/28 08:36:13;;;;;;;;;;;;;;;;;;7368944;19;1500;-62
2023/09/28 08:38:41;;;;;;;;;;;;;;;;;;7365963;19;1861;-63
2023/09/28 08:41:09;;;;;;;;;;;;;;;;;;7365311;19;1746;-63
2023/09/28 08:43:39;;;;;;;;;;;;;;;;;;7369163;19;1681;-65
2023/09/28 08:46:07;;;;;;;;;;;;;;;;;;7366182;19;1796;-63
2023/09/28 08:48:36;;;;;;;;;;;;;;;;;;7370156;19;1570;-66
2023/09/28 08:51:04;;;;;;;;;;;;;;;;;;7364320;19;1761;-65
2023/09/28 08:53:32;;;;;;;;;;;;;;;;;;7370323;19;1246;-63
2023/09/28 08:56:00;;;;;;;;;;;;;;;;;;7366069;19;1657;-63
2023/09/28 08:58:28;;;;;;;;;;;;;;;;;;7365064;19;1859;-66
2023/09/28 09:00:56;;;;;;;;;;;;;;;;;;7360576;19;1301;-64
2023/09/28 09:03:25;;;;;;;;;;;;;;;;;;7365262;19;860;-65
2023/09/28 09:05:53;;;;;;;;;;;;;;;;;;7365288;19;820;-63
2023/09/28 09:08:21;;;;;;;;;;;;;;;;;;7365293;19;795;-63
2023/09/28 09:10:49;;;;;;;;;;;;;;;;;;7363457;19;1368;-63
2023/09/28 09:13:17;;;;;;;;;;;;;;;;;;7365315;19;840;-64
2023/09/28 09:15:46;;;;;;;;;;;;;;;;;;7363497;19;796;-63
2023/09/28 09:18:14;;;;;;;;;;;;;;;;;;7368540;19;1859;-65
2023/09/28 09:20:42;;;;;;;;;;;;;;;;;;7370768;19;1398;-63
2023/09/28 09:23:10;;;;;;;;;;;;;;;;;;7371032;19;881;-63
2023/09/28 09:25:39;;;;;;;;;;;;;;;;;;7371324;19;887;-63
2023/09/28 09:28:07;;;;;;;;;;;;;;;;;;7371871;19;862;-63
2023/09/28 09:30:35;;;;;;;;;;;;;;;;;;7370004;19;1323;-64
2023/09/28 09:33:04;;;;;;;;;;;;;;;;;;7372240;19;679;-65
2023/09/28 09:35:33;;;;;;;;;;;;;;;;;;7370887;19;794;-65
2023/09/28 09:38:01;;;;;;;;;;;;;;;;;;7371708;19;806;-63
2023/09/28 09:40:30;;;;;;;;;;;;;;;;;;7369748;19;1845;-65
2023/09/28 09:42:59;;;;;;;;;;;;;;;;;;7372175;19;845;-63
2023/09/28 09:45:27;;;;;;;;;;;;;;;;;;7370829;19;825;-64
2023/09/28 09:47:55;;;;;;;;;;;;;;;;;;7371850;19;865;-65
2023/09/28 09:50:23;;;;;;;;;;;;;;;;;;7370251;19;1280;-63
2023/09/28 09:52:51;;;;;;;;;;;;;;;;;;7371187;19;853;-65
2023/09/28 09:55:20;;;;;;;;;;;;;;;;;;7369629;19;814;-67
2023/09/28 09:57:49;;;;;;;;;;;;;;;;;;7371235;19;778;-63
2023/09/28 10:00:18;;;;;;;;;;;;;;;;;;7369117;19;1846;-61
2023/09/28 10:02:47;;;;;;;;;;;;;;;;;;7370952;19;885;-63
2023/09/28 10:05:15;;;;;;;;;;;;;;;;;;7370227;19;837;-63
2023/09/28 10:07:43;;;;;;;;;;;;;;;;;;7370177;19;829;-64
2023/09/28 10:10:12;;;;;;;;;;;;;;;;;;7369318;19;1295;-63
2023/09/28 10:12:40;;;;;;;;;;;;;;;;;;7370332;19;881;-63
2023/09/28 10:15:08;;;;;;;;;;;;;;;;;;7369973;19;823;-64
2023/09/28 10:17:36;;;;;;;;;;;;;;;;;;7370669;19;779;-63
2023/09/28 10:20:06;;;;;;;;;;;;;;;;;;7368611;19;1841;-64
2023/09/28 10:22:34;;;;;;;;;;;;;;;;;;7370175;19;878;-64
2023/09/28 10:25:03;;;;;;;;;;;;;;;;;;7369163;19;895;-62
2023/09/28 10:27:31;;;;;;;;;;;;;;;;;;7369728;19;866;-63
2023/09/28 10:29:59;;;;;;;;;;;;;;;;;;7367410;19;1288;-65
2023/09/28 10:32:28;;;;;;;;;;;;;;;;;;7369628;19;821;-63
2023/09/28 10:34:56;;;;;;;;;;;;;;;;;;7366894;19;1644;-64
2023/09/28 10:37:24;;;;;;;;;;;;;;;;;;7370889;19;1709;-65
2023/09/28 10:39:52;;;;;;;;;;;;;;;;;;7371556;19;1842;-66
2023/09/28 10:42:20;;;;;;;;;;;;;;;;;;7371477;19;1658;-64
2023/09/28 10:44:49;;;;;;;;;;;;;;;;;;7371178;19;1402;-63
2023/09/28 10:47:17;;;;;;;;;;;;;;;;;;7373881;19;2113;-62
2023/09/28 10:49:45;;;;;;;;;;;;;;;;;;7368993;19;1346;-62
2023/09/28 10:52:14;;;;;;;;;;;;;;;;;;7367862;19;855;-64
2023/09/28 10:54:44;;;;;;;;;;;;;;;;;;7368264;19;1793;-62
2023/09/28 10:57:12;;;;;;;;;;;;;;;;;;7373918;19;1391;-62
2023/09/28 10:59:41;;;;;;;;;;;;;;;;;;7370085;19;1968;-65
2023/09/28 11:02:09;;;;;;;;;;;;;;;;;;7372931;19;1841;-65
2023/09/28 11:04:37;;;;;;;;;;;;;;;;;;7373370;19;1487;-64
2023/09/28 11:07:05;;;;;;;;;;;;;;;;;;7369760;19;1682;-66
2023/09/28 11:09:33;;;;;;;;;;;;;;;;;;7372882;19;1463;-64
2023/09/28 11:12:02;;;;;;;;;;;;;;;;;;7372002;19;1643;-64
2023/09/28 11:14:32;;;;;;;;;;;;;;;;;;7372807;19;1464;-65
2023/09/28 11:17:00;;;;;;;;;;;;;;;;;;7369199;19;904;-64
2023/09/28 11:19:28;;;;;;;;;;;;;;;;;;7367469;19;1853;-66
2023/09/28 11:21:56;;;;;;;;;;;;;;;;;;7368416;19;850;-64
2023/09/28 11:24:24;;;;;;;;;;;;;;;;;;7367926;19;846;-63
2023/09/28 11:26:52;;;;;;;;;;;;;;;;;;7368071;19;832;-65
2023/09/28 11:29:20;;;;;;;;;;;;;;;;;;7368220;19;1290;-65
2023/09/28 11:31:48;;;;;;;;;;;;;;;;;;7368320;19;821;-63
2023/09/28 11:34:17;;;;;;;;;;;;;;;;;;7368415;19;795;-66
2023/09/28 11:36:45;;;;;;;;;;;;;;;;;;7367713;19;801;-64
2023/09/28 11:39:13;;;;;;;;;;;;;;;;;;7368059;19;1833;-64
2023/09/28 11:41:42;;;;;;;;;;;;;;;;;;7368936;19;1732;-65
2023/09/28 11:44:10;;;;;;;;;;;;;;;;;;7370098;19;1617;-67
2023/09/28 11:46:38;;;;;;;;;;;;;;;;;;7367833;19;822;-64
2023/09/28 11:49:07;;;;;;;;;;;;;;;;;;7369510;19;1654;-64
2023/09/28 11:51:35;;;;;;;;;;;;;;;;;;7367709;19;1555;-65
2023/09/28 11:54:03;;;;;;;;;;;;;;;;;;7367853;19;1808;-63
2023/09/28 11:56:31;;;;;;;;;;;;;;;;;;7370087;19;1726;-63
2023/09/28 11:58:59;;;;;;;;;;;;;;;;;;7371233;19;1908;-66
2023/09/28 12:01:28;;;;;;;;;;;;;;;;;;7369255;19;1888;-63
2023/09/28 12:03:57;;;;;;;;;;;;;;;;;;7366764;19;1712;-63
2023/09/28 12:06:25;;;;;;;;;;;;;;;;;;7371490;19;1239;-62
2023/09/28 12:08:53;;;;;;;;;;;;;;;;;;7367295;19;1968;-63
2023/09/28 12:11:21;;;;;;;;;;;;;;;;;;7366690;19;1567;-64
2023/09/28 12:13:49;;;;;;;;;;;;;;;;;;7371112;19;1137;-64
2023/09/28 12:16:19;;;;;;;;;;;;;;;;;;7364831;19;829;-64
2023/09/28 12:18:47;;;;;;;;;;;;;;;;;;7367775;19;821;-61
2023/09/28 12:21:15;;;;;;;;;;;;;;;;;;7364836;19;1879;-64
2023/09/28 12:23:43;;;;;;;;;;;;;;;;;;7366848;19;915;-64
2023/09/28 12:26:11;;;;;;;;;;;;;;;;;;7366241;19;875;-62
2023/09/28 12:28:41;;;;;;;;;;;;;;;;;;7366259;19;820;-62
2023/09/28 12:31:12;;;;;;;;;;;;;;;;;;7364018;19;1286;-64
2023/09/28 12:33:40;;;;;;;;;;;;;;;;;;7366682;19;611;-64
2023/09/28 12:36:09;;;;;;;;;;;;;;;;;;7365957;19;841;-64
2023/09/28 12:38:37;;;;;;;;;;;;;;;;;;7366533;19;1240;-62
2023/09/28 12:41:09;;;;;;;;;;;;;;;;;;7363608;19;1845;-64
2023/09/28 12:43:37;;;;;;;;;;;;;;;;;;7366692;19;754;-63
2023/09/28 12:46:09;;;;;;;;;;;;;;;;;;7366610;19;805;-62
2023/09/28 12:48:37;;;;;;;;;;;;;;;;;;7365512;19;727;-63
2023/09/28 12:51:05;;;;;;;;;;;;;;;;;;7363996;19;1328;-65
2023/09/28 12:53:38;;;;;;;;;;;;;;;;;;7364880;19;840;-64
2023/09/28 12:56:06;;;;;;;;;;;;;;;;;;7366594;19;598;-63
2023/09/28 12:58:34;;;;;;;;;;;;;;;;;;7366771;19;817;-64
2023/09/28 13:01:03;;;;;;;;;;;;;;;;;;7363482;19;1845;-64
2023/09/28 13:03:31;;;;;;;;;;;;;;;;;;7367011;19;792;-65
2023/09/28 13:05:59;;;;;;;;;;;;;;;;;;7366545;19;801;-65
2023/09/28 13:08:28;;;;;;;;;;;;;;;;;;7366522;19;805;-65
2023/09/28 13:10:56;;;;;;;;;;;;;;;;;;7364081;19;1359;-64
2023/09/28 13:13:25;;;;;;;;;;;;;;;;;;7365810;19;777;-65
2023/09/28 13:15:54;;;;;;;;;;;;;;;;;;7365386;19;900;-63
2023/09/28 13:18:23;;;;;;;;;;;;;;;;;;7364985;19;868;-64
2023/09/28 13:20:49;;;;;;;;;;;;;;;;;;7363247;19;1850;-63
2023/09/28 13:23:17;;;;;;;;;;;;;;;;;;7364929;19;855;-63
2023/09/28 13:25:45;;;;;;;;;;;;;;;;;;7364888;19;845;-63
2023/09/28 13:28:16;;;;;;;;;;;;;;;;;;7364584;19;1738;-64
2023/09/28 13:30:47;;;;;;;;;;;;;;;;;;7365091;19;1715;-66
2023/09/28 13:33:15;;;;;;;;;;;;;;;;;;7367331;19;1417;-64
2023/09/28 13:35:43;;;;;;;;;;;;;;;;;;7362521;19;777;-62
2023/09/28 13:38:11;;;;;;;;;;;;;;;;;;7364041;19;1830;-63
2023/09/28 13:40:40;;;;;;;;;;;;;;;;;;7366124;19;1846;-63
2023/09/28 13:43:08;;;;;;;;;;;;;;;;;;7368114;19;1141;-64
2023/09/28 13:45:37;;;;;;;;;;;;;;;;;;7363380;19;885;-65
2023/09/28 13:48:05;;;;;;;;;;;;;;;;;;7367730;19;1632;-66
2023/09/28 13:50:33;;;;;;;;;;;;;;;;;;7367828;19;1357;-65
2023/09/28 13:53:02;;;;;;;;;;;;;;;;;;7366076;19;753;-64
2023/09/28 13:55:30;;;;;;;;;;;;;;;;;;7366689;19;1648;-65
2023/09/28 13:57:58;;;;;;;;;;;;;;;;;;7368240;19;1263;-65
2023/09/28 14:00:34;;;;;;;;;;;;;;;;;;7364298;19;1845;-64
2023/09/28 14:03:02;;;;;;;;;;;;;;;;;;7367645;19;1680;-66
2023/09/28 14:05:31;;;;;;;;;;;;;;;;;;7372977;19;1470;-65
2023/09/28 14:08:00;;;;;;;;;;;;;;;;;;7371957;19;809;-65
2023/09/28 14:10:28;;;;;;;;;;;;;;;;;;7372325;19;1535;-63
2023/09/28 14:12:56;;;;;;;;;;;;;;;;;;7373592;19;1676;-65
2023/09/28 14:15:24;;;;;;;;;;;;;;;;;;7370283;19;852;-64
2023/09/28 14:17:53;;;;;;;;;;;;;;;;;;7371372;19;1915;-65
2023/09/28 14:20:21;;;;;;;;;;;;;;;;;;7370745;19;2165;-65
2023/09/28 14:22:50;;;;;;;;;;;;;;;;;;7372410;19;1666;-64
2023/09/28 14:25:18;;;;;;;;;;;;;;;;;;7384871;19;2125;-64
2023/09/28 14:27:47;;;;;;;;;;;;;;;;;;7378244;19;2018;-66
2023/09/28 14:30:15;;;;;;;;;;;;;;;;;;7375960;19;1810;-64
2023/09/28 14:32:43;;;;;;;;;;;;;;;;;;7371085;19;2013;-63
2023/09/28 14:35:11;;;;;;;;;;;;;;;;;;7373953;19;1479;-66
2023/09/28 14:37:40;;;;;;;;;;;;;;;;;;7375926;19;850;-64
2023/09/28 14:40:12;;;;;;;;;;;;;;;;;;7372964;19;1952;-64
2023/09/28 14:42:40;;;;;;;;;;;;;;;;;;7373433;19;1493;-65
2023/09/28 14:45:08;;;;;;;;;;;;;;;;;;7373209;19;1458;-63
2023/09/28 14:47:36;;;;;;;;;;;;;;;;;;7369195;19;1753;-64
2023/09/28 14:50:05;;;;;;;;;;;;;;;;;;7370980;19;1760;-64
2023/09/28 14:52:33;;;;;;;;;;;;;;;;;;7370769;19;1659;-64
2023/09/28 14:55:02;;;;;;;;;;;;;;;;;;7369689;19;1697;-64
2023/09/28 14:57:30;;;;;;;;;;;;;;;;;;7373533;19;1467;-65
2023/09/28 14:59:59;;;;;;;;;;;;;;;;;;7368013;19;1846;-64
2023/09/28 15:02:27;;;;;;;;;;;;;;;;;;7369967;19;2366;-64
2023/09/28 15:04:55;;;;;;;;;;;;;;;;;;7370420;19;1963;-65
2023/09/28 15:07:23;;;;;;;;;;;;;;;;;;7371688;19;1832;-64
2023/09/28 15:09:51;;;;;;;;;;;;;;;;;;7371586;19;1575;-64
2023/09/28 15:12:20;;;;;;;;;;;;;;;;;;7371150;19;1918;-64
2023/09/28 15:14:48;;;;;;;;;;;;;;;;;;7368831;19;1798;-64
2023/09/28 15:17:16;;;;;;;;;;;;;;;;;;7371567;19;1539;-64
2023/09/28 15:19:44;;;;;;;;;;;;;;;;;;7369631;19;1813;-64
2023/09/28 15:22:13;;;;;;;;;;;;;;;;;;7367293;19;1854;-63
2023/09/28 15:24:41;;;;;;;;;;;;;;;;;;7369301;19;1700;-64
2023/09/28 15:27:09;;;;;;;;;;;;;;;;;;7370458;19;1697;-63
2023/09/28 15:29:37;;;;;;;;;;;;;;;;;;7369345;19;1695;-64
2023/09/28 15:32:08;;;;;;;;;;;;;;;;;;7369782;19;1617;-62
2023/09/28 15:34:36;;;;;;;;;;;;;;;;;;7366128;19;1740;-64
2023/09/28 15:37:04;;;;;;;;;;;;;;;;;;7371441;19;1627;-64
2023/09/28 15:39:33;;;;;;;;;;;;;;;;;;7370520;19;1714;-63
2023/09/28 15:42:01;;;;;;;;;;;;;;;;;;7367992;19;2111;-63
2023/09/28 15:44:29;;;;;;;;;;;;;;;;;;7371661;19;1445;-65
2023/09/28 15:46:57;;;;;;;;;;;;;;;;;;7371201;19;1428;-64
2023/09/28 15:49:25;;;;;;;;;;;;;;;;;;7370903;19;1692;-65
2023/09/28 15:51:53;;;;;;;;;;;;;;;;;;7370725;19;1485;-64
2023/09/28 15:54:21;;;;;;;;;;;;;;;;;;7368469;19;1866;-64
2023/09/28 15:56:50;;;;;;;;;;;;;;;;;;7370494;19;1508;-64
2023/09/28 15:59:18;;;;;;;;;;;;;;;;;;7367442;19;1336;-64
2023/09/28 16:01:47;;;;;;;;;;;;;;;;;;7364959;19;2132;-62
2023/09/28 16:04:15;;;;;;;;;;;;;;;;;;7370575;19;1617;-63
2023/09/28 16:06:44;;;;;;;;;;;;;;;;;;7367086;19;848;-64
2023/09/28 16:09:13;;;;;;;;;;;;;;;;;;7367891;19;1674;-64
2023/09/28 16:11:41;;;;;;;;;;;;;;;;;;7367219;19;1734;-63
2023/09/28 16:14:09;;;;;;;;;;;;;;;;;;7367158;19;859;-63
2023/09/28 16:16:38;;;;;;;;;;;;;;;;;;7367232;19;1015;-63
2023/09/28 16:19:06;;;;;;;;;;;;;;;;;;7367372;19;1831;-64
2023/09/28 16:21:34;;;;;;;;;;;;;;;;;;7365893;19;1823;-64
2023/09/28 16:24:02;;;;;;;;;;;;;;;;;;7367128;19;834;-64
2023/09/28 16:26:30;;;;;;;;;;;;;;;;;;7365406;19;819;-64
2023/09/28 16:28:58;;;;;;;;;;;;;;;;;;7366671;19;1999;-63
2023/09/28 16:31:26;;;;;;;;;;;;;;;;;;7367985;19;1621;-63
2023/09/28 16:33:54;;;;;;;;;;;;;;;;;;7366900;19;857;-66
2023/09/28 16:36:23;;;;;;;;;;;;;;;;;;7365972;19;882;-63
2023/09/28 16:38:51;;;;;;;;;;;;;;;;;;7368847;19;1748;-65
2023/09/28 16:41:19;;;;;;;;;;;;;;;;;;7367168;19;1849;-64
2023/09/28 16:43:47;;;;;;;;;;;;;;;;;;7368278;19;1948;-64
2023/09/28 16:46:15;;;;;;;;;;;;;;;;;;7367798;19;1740;-65
2023/09/28 16:48:44;;;;;;;;;;;;;;;;;;7368823;19;1858;-65
2023/09/28 16:51:12;;;;;;;;;;;;;;;;;;7368047;19;1494;-64
2023/09/28 16:53:40;;;;;;;;;;;;;;;;;;7366469;19;806;-64
2023/09/28 16:56:09;;;;;;;;;;;;;;;;;;7366862;19;2005;-64
2023/09/28 16:58:37;;;;;;;;;;;;;;;;;;7369070;19;1588;-65
2023/09/28 17:01:05;;;;;;;;;;;;;;;;;;7365016;19;1853;-64
2023/09/28 17:03:33;;;;;;;;;;;;;;;;;;7365746;19;790;-64
2023/09/28 17:06:01;;;;;;;;;;;;;;;;;;7365092;19;1811;-65
2023/09/28 17:08:30;;;;;;;;;;;;;;;;;;7370215;19;2094;-65
2023/09/28 17:10:58;;;;;;;;;;;;;;;;;;7364189;19;1601;-66
2023/09/28 17:13:26;;;;;;;;;;;;;;;;;;7366000;19;810;-64
2023/09/28 17:15:54;;;;;;;;;;;;;;;;;;7364611;19;866;-65